Rockwall's Hourly Summary for Tuesday, March 14, 2017
Hour Temp
(f)
RH
(%)
Solar Rad.
(MJ/m2)
Rainfall
(in)
Wind
(mph)
3/14/2017 12:00 AM 44 46 0 0 2.57
3/14/2017 1:00 AM 43 50 0 0 1.01
3/14/2017 2:00 AM 41 55 0 0 0.63
3/14/2017 3:00 AM 40 57 0 0 0.85
3/14/2017 4:00 AM 38 62 0 0 0.01
3/14/2017 5:00 AM 37 67 0 0 0.06
3/14/2017 6:00 AM 36 67 0 0 0
3/14/2017 7:00 AM 35 73 0 0 0.01
3/14/2017 8:00 AM 35 72 0.04 0 0
3/14/2017 9:00 AM 39 59 0.61 0 0.18
3/14/2017 10:00 AM 43 51 1.27 0 2.33
3/14/2017 11:00 AM 46 45 1.91 0 2.18
3/14/2017 12:00 PM 50 42 2.47 0 1.88
3/14/2017 1:00 PM 52 40 2.73 0 1.63
3/14/2017 2:00 PM 55 34 2.82 0 1.87
3/14/2017 3:00 PM 57 33 2.61 0 2.05
3/14/2017 4:00 PM 60 33 2.32 0 1.39
3/14/2017 5:00 PM 61 34 1.14 0 2.63
3/14/2017 6:00 PM 62 33 0.98 0 1.58
3/14/2017 7:00 PM 60 35 0.19 0 0.35
3/14/2017 8:00 PM 57 41 0.02 0 0.23
3/14/2017 9:00 PM 54 46 0 0 0.73
3/14/2017 10:00 PM 52 50 0 0 0.1
3/14/2017 11:00 PM 51 52 0 0 0.7
Data Summary 47 49 19.11 0.00 1.04